sensor_id;sensor_type;location;lat;lon;timestamp;temperature;humidity
2565;DHT22;1292;48.020;7.822;2023-08-06T05:48:15;14.70;99.90
2565;DHT22;1292;48.020;7.822;2023-08-06T05:50:42;14.80;99.90
2565;DHT22;1292;48.020;7.822;2023-08-06T05:53:09;14.80;99.90
2565;DHT22;1292;48.020;7.822;2023-08-06T05:55:36;14.80;99.90
2565;DHT22;1292;48.020;7.822;2023-08-06T05:58:03;14.70;99.90
2565;DHT22;1292;48.020;7.822;2023-08-06T06:00:30;14.70;99.90
2565;DHT22;1292;48.020;7.822;2023-08-06T06:02:57;14.70;99.90
2565;DHT22;1292;48.020;7.822;2023-08-06T06:05:25;14.80;99.90
2565;DHT22;1292;48.020;7.822;2023-08-06T06:07:52;14.80;99.90
2565;DHT22;1292;48.020;7.822;2023-08-06T06:10:18;14.90;99.90
2565;DHT22;1292;48.020;7.822;2023-08-06T06:12:45;14.90;99.90
2565;DHT22;1292;48.020;7.822;2023-08-06T06:15:12;14.90;99.90
2565;DHT22;1292;48.020;7.822;2023-08-06T06:17:39;15.00;99.90
2565;DHT22;1292;48.020;7.822;2023-08-06T06:20:07;15.00;99.90
2565;DHT22;1292;48.020;7.822;2023-08-06T06:22:35;15.00;99.90
2565;DHT22;1292;48.020;7.822;2023-08-06T06:25:02;14.90;99.90
2565;DHT22;1292;48.020;7.822;2023-08-06T06:27:29;14.90;99.90
2565;DHT22;1292;48.020;7.822;2023-08-06T06:29:56;14.90;99.90
2565;DHT22;1292;48.020;7.822;2023-08-06T06:32:22;14.90;99.90
2565;DHT22;1292;48.020;7.822;2023-08-06T06:34:49;14.90;99.90
2565;DHT22;1292;48.020;7.822;2023-08-06T06:37:16;14.90;99.90
2565;DHT22;1292;48.020;7.822;2023-08-06T06:39:44;14.90;99.90
2565;DHT22;1292;48.020;7.822;2023-08-06T06:42:11;14.90;99.90
2565;DHT22;1292;48.020;7.822;2023-08-06T06:44:38;14.90;99.90
2565;DHT22;1292;48.020;7.822;2023-08-06T06:47:05;14.90;99.90
2565;DHT22;1292;48.020;7.822;2023-08-06T06:49:32;14.80;99.90
2565;DHT22;1292;48.020;7.822;2023-08-06T06:51:58;14.80;99.90
2565;DHT22;1292;48.020;7.822;2023-08-06T06:54:25;14.80;99.90
2565;DHT22;1292;48.020;7.822;2023-08-06T06:56:53;14.80;99.90
2565;DHT22;1292;48.020;7.822;2023-08-06T06:59:20;14.80;99.90
2565;DHT22;1292;48.020;7.822;2023-08-06T07:01:47;14.70;99.90
2565;DHT22;1292;48.020;7.822;2023-08-06T07:04:14;14.70;99.90
2565;DHT22;1292;48.020;7.822;2023-08-06T07:06:41;14.80;99.90
2565;DHT22;1292;48.020;7.822;2023-08-06T07:09:07;14.70;99.90
2565;DHT22;1292;48.020;7.822;2023-08-06T07:11:34;14.80;99.90
2565;DHT22;1292;48.020;7.822;2023-08-06T07:14:02;14.80;99.90
2565;DHT22;1292;48.020;7.822;2023-08-06T07:16:29;14.90;99.90
2565;DHT22;1292;48.020;7.822;2023-08-06T07:18:56;14.90;99.90
2565;DHT22;1292;48.020;7.822;2023-08-06T07:21:23;14.80;99.90
2565;DHT22;1292;48.020;7.822;2023-08-06T07:23:50;14.80;99.90
2565;DHT22;1292;48.020;7.822;2023-08-06T07:26:17;14.80;99.90
2565;DHT22;1292;48.020;7.822;2023-08-06T07:28:44;14.80;99.90
2565;DHT22;1292;48.020;7.822;2023-08-06T07:31:12;14.90;99.90
2565;DHT22;1292;48.020;7.822;2023-08-06T07:33:39;14.80;99.90
2565;DHT22;1292;48.020;7.822;2023-08-06T07:36:10;14.90;99.90
2565;DHT22;1292;48.020;7.822;2023-08-06T07:38:36;14.90;99.90
2565;DHT22;1292;48.020;7.822;2023-08-06T07:41:04;15.00;99.90
2565;DHT22;1292;48.020;7.822;2023-08-06T07:43:31;15.00;99.90
2565;DHT22;1292;48.020;7.822;2023-08-06T07:45:58;15.00;99.90
2565;DHT22;1292;48.020;7.822;2023-08-06T07:48:27;15.10;99.90
2565;DHT22;1292;48.020;7.822;2023-08-06T07:50:54;15.00;99.90
2565;DHT22;1292;48.020;7.822;2023-08-06T07:53:21;15.10;99.90
2565;DHT22;1292;48.020;7.822;2023-08-06T07:55:50;15.10;99.90
2565;DHT22;1292;48.020;7.822;2023-08-06T07:58:17;15.10;99.90
2565;DHT22;1292;48.020;7.822;2023-08-06T08:00:44;15.20;99.90
2565;DHT22;1292;48.020;7.822;2023-08-06T08:03:11;15.20;99.90
2565;DHT22;1292;48.020;7.822;2023-08-06T08:05:40;15.20;99.90
2565;DHT22;1292;48.020;7.822;2023-08-06T08:08:07;15.20;99.90
2565;DHT22;1292;48.020;7.822;2023-08-06T08:10:34;15.30;99.90
2565;DHT22;1292;48.020;7.822;2023-08-06T08:13:03;15.30;99.90
2565;DHT22;1292;48.020;7.822;2023-08-06T08:15:31;15.30;99.90
2565;DHT22;1292;48.020;7.822;2023-08-06T08:17:58;15.40;99.90
2565;DHT22;1292;48.020;7.822;2023-08-06T08:20:25;15.40;99.90
2565;DHT22;1292;48.020;7.822;2023-08-06T08:22:58;15.40;99.90
2565;DHT22;1292;48.020;7.822;2023-08-06T08:25:26;15.40;99.90
2565;DHT22;1292;48.020;7.822;2023-08-06T08:27:53;15.50;99.90
2565;DHT22;1292;48.020;7.822;2023-08-06T08:30:20;15.50;99.90
2565;DHT22;1292;48.020;7.822;2023-08-06T08:32:47;15.60;99.90
2565;DHT22;1292;48.020;7.822;2023-08-06T08:35:14;15.60;99.90
2565;DHT22;1292;48.020;7.822;2023-08-06T08:37:41;15.50;99.90
2565;DHT22;1292;48.020;7.822;2023-08-06T08:40:10;15.40;99.90
2565;DHT22;1292;48.020;7.822;2023-08-06T08:42:37;15.40;99.90
2565;DHT22;1292;48.020;7.822;2023-08-06T08:45:05;15.40;99.90
2565;DHT22;1292;48.020;7.822;2023-08-06T08:47:33;15.30;99.90
2565;DHT22;1292;48.020;7.822;2023-08-06T08:50:00;15.40;99.90
2565;DHT22;1292;48.020;7.822;2023-08-06T08:52:28;15.40;99.90
2565;DHT22;1292;48.020;7.822;2023-08-06T08:54:56;15.50;99.90
2565;DHT22;1292;48.020;7.822;2023-08-06T08:57:26;15.50;99.90
2565;DHT22;1292;48.020;7.822;2023-08-06T08:59:52;15.50;99.90
2565;DHT22;1292;48.020;7.822;2023-08-06T09:02:21;15.50;99.90
2565;DHT22;1292;48.020;7.822;2023-08-06T09:04:50;15.50;99.90
2565;DHT22;1292;48.020;7.822;2023-08-06T09:07:18;15.50;99.90
2565;DHT22;1292;48.020;7.822;2023-08-06T09:09:48;15.50;99.90
2565;DHT22;1292;48.020;7.822;2023-08-06T09:12:16;15.50;99.90
2565;DHT22;1292;48.020;7.822;2023-08-06T09:14:44;15.50;99.90
2565;DHT22;1292;48.020;7.822;2023-08-06T09:17:11;15.60;99.90
2565;DHT22;1292;48.020;7.822;2023-08-06T09:19:41;15.60;99.90
2565;DHT22;1292;48.020;7.822;2023-08-06T09:22:11;15.60;99.90
2565;DHT22;1292;48.020;7.822;2023-08-06T09:24:39;15.60;99.90
2565;DHT22;1292;48.020;7.822;2023-08-06T09:27:10;15.60;99.90
2565;DHT22;1292;48.020;7.822;2023-08-06T09:29:40;15.60;99.90
2565;DHT22;1292;48.020;7.822;2023-08-06T09:32:08;15.60;99.90
2565;DHT22;1292;48.020;7.822;2023-08-06T09:34:35;15.60;99.90
2565;DHT22;1292;48.020;7.822;2023-08-06T09:37:05;15.60;99.90
2565;DHT22;1292;48.020;7.822;2023-08-06T09:39:31;15.60;99.90
2565;DHT22;1292;48.020;7.822;2023-08-06T09:41:59;15.60;99.90
2565;DHT22;1292;48.020;7.822;2023-08-06T09:44:29;15.60;99.90
2565;DHT22;1292;48.020;7.822;2023-08-06T09:46:57;15.60;99.90
2565;DHT22;1292;48.020;7.822;2023-08-06T09:49:27;15.70;99.90
2565;DHT22;1292;48.020;7.822;2023-08-06T09:51:55;15.70;99.90
2565;DHT22;1292;48.020;7.822;2023-08-06T09:54:24;15.70;99.90
2565;DHT22;1292;48.020;7.822;2023-08-06T09:56:52;15.80;99.90
2565;DHT22;1292;48.020;7.822;2023-08-06T09:59:19;15.80;99.90
2565;DHT22;1292;48.020;7.822;2023-08-06T10:01:46;15.80;99.90
2565;DHT22;1292;48.020;7.822;2023-08-06T10:04:14;15.70;99.90
2565;DHT22;1292;48.020;7.822;2023-08-06T10:06:47;15.70;99.90
2565;DHT22;1292;48.020;7.822;2023-08-06T10:09:14;15.80;99.90
2565;DHT22;1292;48.020;7.822;2023-08-06T10:11:42;15.70;99.90
2565;DHT22;1292;48.020;7.822;2023-08-06T10:14:12;15.70;99.90
2565;DHT22;1292;48.020;7.822;2023-08-06T10:16:41;15.80;99.90
2565;DHT22;1292;48.020;7.822;2023-08-06T10:19:10;15.80;99.90
2565;DHT22;1292;48.020;7.822;2023-08-06T10:21:38;15.80;99.90
2565;DHT22;1292;48.020;7.822;2023-08-06T10:24:08;15.80;99.90
2565;DHT22;1292;48.020;7.822;2023-08-06T10:26:36;15.80;99.90
2565;DHT22;1292;48.020;7.822;2023-08-06T10:29:37;15.80;99.90
2565;DHT22;1292;48.020;7.822;2023-08-06T10:32:04;15.80;99.90
2565;DHT22;1292;48.020;7.822;2023-08-06T10:34:53;15.80;99.90
2565;DHT22;1292;48.020;7.822;2023-08-06T10:37:23;15.80;99.90
2565;DHT22;1292;48.020;7.822;2023-08-06T10:39:51;15.80;99.90
2565;DHT22;1292;48.020;7.822;2023-08-06T10:42:22;15.70;99.90
2565;DHT22;1292;48.020;7.822;2023-08-06T10:45:11;15.70;99.90
2565;DHT22;1292;48.020;7.822;2023-08-06T10:47:38;15.70;99.90
2565;DHT22;1292;48.020;7.822;2023-08-06T10:50:07;15.70;99.90
2565;DHT22;1292;48.020;7.822;2023-08-06T10:52:34;15.70;99.90
2565;DHT22;1292;48.020;7.822;2023-08-06T10:55:02;15.60;99.90
2565;DHT22;1292;48.020;7.822;2023-08-06T10:57:29;15.60;99.90
2565;DHT22;1292;48.020;7.822;2023-08-06T10:59:56;15.60;99.90
2565;DHT22;1292;48.020;7.822;2023-08-06T11:02:23;15.50;99.90
2565;DHT22;1292;48.020;7.822;2023-08-06T11:04:49;15.50;99.90
2565;DHT22;1292;48.020;7.822;2023-08-06T11:07:17;15.50;99.90
2565;DHT22;1292;48.020;7.822;2023-08-06T11:09:43;15.30;99.90
2565;DHT22;1292;48.020;7.822;2023-08-06T11:12:12;15.20;99.90
2565;DHT22;1292;48.020;7.822;2023-08-06T11:14:50;15.20;99.90
2565;DHT22;1292;48.020;7.822;2023-08-06T11:17:17;15.30;99.90
2565;DHT22;1292;48.020;7.822;2023-08-06T11:19:44;15.40;99.90
2565;DHT22;1292;48.020;7.822;2023-08-06T11:22:10;15.50;99.90
2565;DHT22;1292;48.020;7.822;2023-08-06T11:24:38;15.50;99.90
2565;DHT22;1292;48.020;7.822;2023-08-06T11:27:12;15.40;99.90
2565;DHT22;1292;48.020;7.822;2023-08-06T11:29:40;15.30;99.90
2565;DHT22;1292;48.020;7.822;2023-08-06T11:32:08;15.30;99.90
2565;DHT22;1292;48.020;7.822;2023-08-06T11:34:35;15.40;99.90
2565;DHT22;1292;48.020;7.822;2023-08-06T11:37:03;15.30;99.90
2565;DHT22;1292;48.020;7.822;2023-08-06T11:39:31;15.30;99.90
2565;DHT22;1292;48.020;7.822;2023-08-06T11:41:58;15.30;99.90
2565;DHT22;1292;48.020;7.822;2023-08-06T11:44:30;15.40;99.90
2565;DHT22;1292;48.020;7.822;2023-08-06T11:46:58;15.40;99.90
2565;DHT22;1292;48.020;7.822;2023-08-06T11:49:44;15.60;99.90
2565;DHT22;1292;48.020;7.822;2023-08-06T11:52:15;15.60;99.90
2565;DHT22;1292;48.020;7.822;2023-08-06T11:54:45;15.70;99.90
2565;DHT22;1292;48.020;7.822;2023-08-06T11:57:12;15.70;99.90
2565;DHT22;1292;48.020;7.822;2023-08-06T11:59:40;15.80;99.90
2565;DHT22;1292;48.020;7.822;2023-08-06T12:02:09;15.70;99.90
2565;DHT22;1292;48.020;7.822;2023-08-06T12:05:00;15.80;99.90
2565;DHT22;1292;48.020;7.822;2023-08-06T12:07:29;15.90;99.90
2565;DHT22;1292;48.020;7.822;2023-08-06T12:09:56;15.90;99.90
2565;DHT22;1292;48.020;7.822;2023-08-06T12:12:23;15.90;99.90
2565;DHT22;1292;48.020;7.822;2023-08-06T12:14:51;15.70;99.90
2565;DHT22;1292;48.020;7.822;2023-08-06T12:17:18;15.70;99.90
2565;DHT22;1292;48.020;7.822;2023-08-06T12:19:45;15.40;99.90
2565;DHT22;1292;48.020;7.822;2023-08-06T12:22:13;15.10;99.90
2565;DHT22;1292;48.020;7.822;2023-08-06T12:24:40;15.20;99.90
2565;DHT22;1292;48.020;7.822;2023-08-06T12:27:07;15.20;99.90
2565;DHT22;1292;48.020;7.822;2023-08-06T12:29:34;15.30;99.90
2565;DHT22;1292;48.020;7.822;2023-08-06T12:32:04;15.40;99.90
2565;DHT22;1292;48.020;7.822;2023-08-06T12:34:31;15.50;99.90
2565;DHT22;1292;48.020;7.822;2023-08-06T12:36:58;15.70;99.90
2565;DHT22;1292;48.020;7.822;2023-08-06T12:39:24;15.80;99.90
2565;DHT22;1292;48.020;7.822;2023-08-06T12:41:54;15.90;99.90
2565;DHT22;1292;48.020;7.822;2023-08-06T12:44:22;15.90;99.90
2565;DHT22;1292;48.020;7.822;2023-08-06T12:46:49;15.70;99.90
2565;DHT22;1292;48.020;7.822;2023-08-06T12:49:18;15.90;99.90
2565;DHT22;1292;48.020;7.822;2023-08-06T12:51:46;15.90;99.90
2565;DHT22;1292;48.020;7.822;2023-08-06T12:54:13;15.90;99.90
2565;DHT22;1292;48.020;7.822;2023-08-06T12:56:40;15.70;99.90
2565;DHT22;1292;48.020;7.822;2023-08-06T12:59:07;15.70;99.90
2565;DHT22;1292;48.020;7.822;2023-08-06T13:01:33;15.70;99.90
2565;DHT22;1292;48.020;7.822;2023-08-06T13:04:00;15.90;99.90
2565;DHT22;1292;48.020;7.822;2023-08-06T13:06:29;16.10;99.90
2565;DHT22;1292;48.020;7.822;2023-08-06T13:09:01;16.30;99.90
2565;DHT22;1292;48.020;7.822;2023-08-06T13:11:28;16.40;99.90
2565;DHT22;1292;48.020;7.822;2023-08-06T13:13:56;16.40;99.90
2565;DHT22;1292;48.020;7.822;2023-08-06T13:16:23;16.60;99.90
2565;DHT22;1292;48.020;7.822;2023-08-06T13:18:50;16.70;99.90
2565;DHT22;1292;48.020;7.822;2023-08-06T13:21:16;16.70;99.90
2565;DHT22;1292;48.020;7.822;2023-08-06T13:23:45;16.80;99.90
2565;DHT22;1292;48.020;7.822;2023-08-06T13:26:13;16.80;99.90
2565;DHT22;1292;48.020;7.822;2023-08-06T13:28:41;16.90;99.90
2565;DHT22;1292;48.020;7.822;2023-08-06T13:31:08;16.90;99.90
2565;DHT22;1292;48.020;7.822;2023-08-06T13:33:35;16.90;99.90
2565;DHT22;1292;48.020;7.822;2023-08-06T13:36:02;16.70;99.90
2565;DHT22;1292;48.020;7.822;2023-08-06T13:38:29;16.80;99.90
2565;DHT22;1292;48.020;7.822;2023-08-06T13:40:57;16.80;99.90
2565;DHT22;1292;48.020;7.822;2023-08-06T13:43:24;16.80;99.90
2565;DHT22;1292;48.020;7.822;2023-08-06T13:45:52;16.80;99.90
2565;DHT22;1292;48.020;7.822;2023-08-06T13:48:18;16.70;99.90
2565;DHT22;1292;48.020;7.822;2023-08-06T13:50:45;16.80;99.90
2565;DHT22;1292;48.020;7.822;2023-08-06T13:53:12;16.80;99.90
2565;DHT22;1292;48.020;7.822;2023-08-06T13:55:39;16.80;99.90
2565;DHT22;1292;48.020;7.822;2023-08-06T13:58:07;16.90;99.90
2565;DHT22;1292;48.020;7.822;2023-08-06T14:00:35;16.90;99.90
2565;DHT22;1292;48.020;7.822;2023-08-06T14:03:01;16.90;99.90
2565;DHT22;1292;48.020;7.822;2023-08-06T14:05:28;17.00;99.90
2565;DHT22;1292;48.020;7.822;2023-08-06T14:07:55;17.20;99.90
2565;DHT22;1292;48.020;7.822;2023-08-06T14:10:22;17.40;99.90
2565;DHT22;1292;48.020;7.822;2023-08-06T14:12:49;17.70;99.90
2565;DHT22;1292;48.020;7.822;2023-08-06T14:15:18;17.80;99.90
2565;DHT22;1292;48.020;7.822;2023-08-06T14:17:44;17.80;99.90
2565;DHT22;1292;48.020;7.822;2023-08-06T14:20:11;17.70;99.90
2565;DHT22;1292;48.020;7.822;2023-08-06T14:22:38;17.60;99.90
2565;DHT22;1292;48.020;7.822;2023-08-06T14:25:06;17.50;99.90
2565;DHT22;1292;48.020;7.822;2023-08-06T14:27:33;17.40;99.90
2565;DHT22;1292;48.020;7.822;2023-08-06T14:30:00;17.20;99.90
2565;DHT22;1292;48.020;7.822;2023-08-06T14:32:29;16.80;99.90
2565;DHT22;1292;48.020;7.822;2023-08-06T14:34:56;16.80;99.90
2565;DHT22;1292;48.020;7.822;2023-08-06T14:37:24;16.80;99.90
2565;DHT22;1292;48.020;7.822;2023-08-06T14:39:51;16.80;99.90
2565;DHT22;1292;48.020;7.822;2023-08-06T14:42:18;16.90;99.90
2565;DHT22;1292;48.020;7.822;2023-08-06T14:44:45;17.00;99.90
2565;DHT22;1292;48.020;7.822;2023-08-06T14:47:12;17.10;99.90
2565;DHT22;1292;48.020;7.822;2023-08-06T14:49:40;17.40;99.90
2565;DHT22;1292;48.020;7.822;2023-08-06T14:52:07;17.50;99.90
2565;DHT22;1292;48.020;7.822;2023-08-06T14:54:34;17.50;99.90
2565;DHT22;1292;48.020;7.822;2023-08-06T14:57:00;17.60;99.90
2565;DHT22;1292;48.020;7.822;2023-08-06T14:59:27;17.70;99.90
2565;DHT22;1292;48.020;7.822;2023-08-06T15:01:54;17.70;99.90
2565;DHT22;1292;48.020;7.822;2023-08-06T15:04:21;17.80;99.90
2565;DHT22;1292;48.020;7.822;2023-08-06T15:06:50;17.80;99.90
2565;DHT22;1292;48.020;7.822;2023-08-06T15:09:17;17.80;99.90
2565;DHT22;1292;48.020;7.822;2023-08-06T15:11:45;17.70;99.90
2565;DHT22;1292;48.020;7.822;2023-08-06T15:14:12;17.70;99.90
2565;DHT22;1292;48.020;7.822;2023-08-06T15:16:40;17.60;99.90
2565;DHT22;1292;48.020;7.822;2023-08-06T15:19:07;17.40;99.90
2565;DHT22;1292;48.020;7.822;2023-08-06T15:21:33;17.30;99.90
2565;DHT22;1292;48.020;7.822;2023-08-06T15:24:02;17.20;99.90
2565;DHT22;1292;48.020;7.822;2023-08-06T15:26:28;17.20;99.90
2565;DHT22;1292;48.020;7.822;2023-08-06T15:28:55;17.20;99.90
2565;DHT22;1292;48.020;7.822;2023-08-06T15:31:22;17.10;99.90
2565;DHT22;1292;48.020;7.822;2023-08-06T15:33:49;17.00;99.90
2565;DHT22;1292;48.020;7.822;2023-08-06T15:36:16;16.80;99.90
2565;DHT22;1292;48.020;7.822;2023-08-06T15:38:43;16.90;99.90
2565;DHT22;1292;48.020;7.822;2023-08-06T15:41:11;16.90;99.90
2565;DHT22;1292;48.020;7.822;2023-08-06T15:43:38;16.90;99.90
2565;DHT22;1292;48.020;7.822;2023-08-06T15:46:07;16.90;99.90
2565;DHT22;1292;48.020;7.822;2023-08-06T15:48:33;17.00;99.90
2565;DHT22;1292;48.020;7.822;2023-08-06T15:51:00;17.20;99.90
2565;DHT22;1292;48.020;7.822;2023-08-06T15:53:28;17.30;99.90
2565;DHT22;1292;48.020;7.822;2023-08-06T15:55:57;17.30;99.90
2565;DHT22;1292;48.020;7.822;2023-08-06T15:58:25;17.50;99.90
2565;DHT22;1292;48.020;7.822;2023-08-06T16:00:52;17.50;99.90
2565;DHT22;1292;48.020;7.822;2023-08-06T16:03:19;17.30;99.90
2565;DHT22;1292;48.020;7.822;2023-08-06T16:05:45;17.30;99.90
2565;DHT22;1292;48.020;7.822;2023-08-06T16:08:12;17.30;99.90
2565;DHT22;1292;48.020;7.822;2023-08-06T16:10:39;17.30;99.90
2565;DHT22;1292;48.020;7.822;2023-08-06T16:13:09;17.20;99.90
2565;DHT22;1292;48.020;7.822;2023-08-06T16:15:37;17.20;99.90
2565;DHT22;1292;48.020;7.822;2023-08-06T16:18:04;17.20;99.90
2565;DHT22;1292;48.020;7.822;2023-08-06T16:20:31;17.20;99.90
2565;DHT22;1292;48.020;7.822;2023-08-06T16:22:58;17.30;99.90
2565;DHT22;1292;48.020;7.822;2023-08-06T16:25:25;17.30;99.90
2565;DHT22;1292;48.020;7.822;2023-08-06T16:27:51;17.20;99.90
2565;DHT22;1292;48.020;7.822;2023-08-06T16:30:18;17.30;99.90
2565;DHT22;1292;48.020;7.822;2023-08-06T16:32:46;17.30;99.90
2565;DHT22;1292;48.020;7.822;2023-08-06T16:35:13;17.20;99.90
2565;DHT22;1292;48.020;7.822;2023-08-06T16:37:41;17.20;99.90
2565;DHT22;1292;48.020;7.822;2023-08-06T16:40:16;17.20;99.90
2565;DHT22;1292;48.020;7.822;2023-08-06T16:42:43;17.10;99.90
2565;DHT22;1292;48.020;7.822;2023-08-06T16:45:10;17.00;99.90
2565;DHT22;1292;48.020;7.822;2023-08-06T16:47:37;16.70;99.90
2565;DHT22;1292;48.020;7.822;2023-08-06T16:50:05;16.40;99.90
2565;DHT22;1292;48.020;7.822;2023-08-06T16:52:32;16.20;99.90
2565;DHT22;1292;48.020;7.822;2023-08-06T16:54:59;15.90;99.90
2565;DHT22;1292;48.020;7.822;2023-08-06T16:57:26;15.60;99.90
2565;DHT22;1292;48.020;7.822;2023-08-06T16:59:53;15.40;99.90
2565;DHT22;1292;48.020;7.822;2023-08-06T17:02:20;15.30;99.90
2565;DHT22;1292;48.020;7.822;2023-08-06T17:04:47;15.30;99.90
2565;DHT22;1292;48.020;7.822;2023-08-06T17:07:15;15.50;99.90
2565;DHT22;1292;48.020;7.822;2023-08-06T17:09:42;15.70;99.90
2565;DHT22;1292;48.020;7.822;2023-08-06T17:12:08;15.80;99.90
2565;DHT22;1292;48.020;7.822;2023-08-06T17:14:35;15.90;99.90
2565;DHT22;1292;48.020;7.822;2023-08-06T17:17:02;16.00;99.90
2565;DHT22;1292;48.020;7.822;2023-08-06T17:19:29;16.00;99.90
2565;DHT22;1292;48.020;7.822;2023-08-06T17:21:56;16.10;99.90
2565;DHT22;1292;48.020;7.822;2023-08-06T17:24:25;16.20;99.90
2565;DHT22;1292;48.020;7.822;2023-08-06T17:26:51;16.30;99.90
2565;DHT22;1292;48.020;7.822;2023-08-06T17:29:24;16.30;99.90
2565;DHT22;1292;48.020;7.822;2023-08-06T17:31:51;16.30;99.90
2565;DHT22;1292;48.020;7.822;2023-08-06T17:34:18;16.30;99.90
2565;DHT22;1292;48.020;7.822;2023-08-06T17:36:45;16.30;99.90
2565;DHT22;1292;48.020;7.822;2023-08-06T17:39:12;16.20;99.90
2565;DHT22;1292;48.020;7.822;2023-08-06T17:41:40;16.20;99.90
2565;DHT22;1292;48.020;7.822;2023-08-06T17:44:07;15.90;99.90
2565;DHT22;1292;48.020;7.822;2023-08-06T17:46:34;15.80;99.90
2565;DHT22;1292;48.020;7.822;2023-08-06T17:49:01;15.80;99.90
2565;DHT22;1292;48.020;7.822;2023-08-06T17:51:28;15.80;99.90
2565;DHT22;1292;48.020;7.822;2023-08-06T17:53:55;15.70;99.90
2565;DHT22;1292;48.020;7.822;2023-08-06T17:56:21;15.70;99.90
2565;DHT22;1292;48.020;7.822;2023-08-06T17:58:50;15.80;99.90
2565;DHT22;1292;48.020;7.822;2023-08-06T18:01:16;15.80;99.90
2565;DHT22;1292;48.020;7.822;2023-08-06T18:03:43;15.80;99.90
2565;DHT22;1292;48.020;7.822;2023-08-06T18:06:12;15.80;99.90
2565;DHT22;1292;48.020;7.822;2023-08-06T18:08:39;15.90;99.90
2565;DHT22;1292;48.020;7.822;2023-08-06T18:11:06;16.00;99.90
2565;DHT22;1292;48.020;7.822;2023-08-06T18:13:33;16.00;99.90
2565;DHT22;1292;48.020;7.822;2023-08-06T18:16:02;16.10;99.90
2565;DHT22;1292;48.020;7.822;2023-08-06T18:18:29;16.10;99.90
2565;DHT22;1292;48.020;7.822;2023-08-06T18:20:56;16.10;99.90
2565;DHT22;1292;48.020;7.822;2023-08-06T18:23:23;16.10;99.90
2565;DHT22;1292;48.020;7.822;2023-08-06T18:25:50;16.10;99.90
2565;DHT22;1292;48.020;7.822;2023-08-06T18:28:22;16.10;99.90
2565;DHT22;1292;48.020;7.822;2023-08-06T18:30:49;16.00;99.90
2565;DHT22;1292;48.020;7.822;2023-08-06T18:33:17;16.00;99.90
2565;DHT22;1292;48.020;7.822;2023-08-06T18:35:44;16.00;99.90
2565;DHT22;1292;48.020;7.822;2023-08-06T18:38:11;16.00;99.90
2565;DHT22;1292;48.020;7.822;2023-08-06T18:40:38;15.90;99.90
2565;DHT22;1292;48.020;7.822;2023-08-06T18:43:05;16.00;99.90
2565;DHT22;1292;48.020;7.822;2023-08-06T18:45:33;15.90;99.90
2565;DHT22;1292;48.020;7.822;2023-08-06T18:48:04;15.90;99.90
2565;DHT22;1292;48.020;7.822;2023-08-06T18:50:33;15.90;99.90
2565;DHT22;1292;48.020;7.822;2023-08-06T18:53:02;16.00;99.90
2565;DHT22;1292;48.020;7.822;2023-08-06T18:55:29;16.00;99.90
2565;DHT22;1292;48.020;7.822;2023-08-06T18:57:57;16.00;99.90
2565;DHT22;1292;48.020;7.822;2023-08-06T19:00:25;15.90;99.90
2565;DHT22;1292;48.020;7.822;2023-08-06T19:02:52;16.00;99.90
2565;DHT22;1292;48.020;7.822;2023-08-06T19:05:19;16.00;99.90
2565;DHT22;1292;48.020;7.822;2023-08-06T19:07:49;15.90;99.90
2565;DHT22;1292;48.020;7.822;2023-08-06T19:10:16;15.90;99.90
2565;DHT22;1292;48.020;7.822;2023-08-06T19:12:43;15.90;99.90
2565;DHT22;1292;48.020;7.822;2023-08-06T19:15:10;15.90;99.90
2565;DHT22;1292;48.020;7.822;2023-08-06T19:17:37;15.80;99.90
2565;DHT22;1292;48.020;7.822;2023-08-06T19:20:04;15.90;99.90
2565;DHT22;1292;48.020;7.822;2023-08-06T19:22:31;15.80;99.90
2565;DHT22;1292;48.020;7.822;2023-08-06T19:25:00;15.80;99.90
2565;DHT22;1292;48.020;7.822;2023-08-06T19:27:27;15.90;99.90
2565;DHT22;1292;48.020;7.822;2023-08-06T19:29:54;15.90;99.90
2565;DHT22;1292;48.020;7.822;2023-08-06T19:32:21;15.80;99.90
2565;DHT22;1292;48.020;7.822;2023-08-06T19:34:48;15.70;99.90
2565;DHT22;1292;48.020;7.822;2023-08-06T19:37:15;15.70;99.90
2565;DHT22;1292;48.020;7.822;2023-08-06T19:39:42;15.70;99.90
2565;DHT22;1292;48.020;7.822;2023-08-06T19:42:10;15.60;99.90
2565;DHT22;1292;48.020;7.822;2023-08-06T19:44:37;15.60;99.90
2565;DHT22;1292;48.020;7.822;2023-08-06T19:47:04;15.50;99.90
2565;DHT22;1292;48.020;7.822;2023-08-06T19:49:32;15.60;99.90
2565;DHT22;1292;48.020;7.822;2023-08-06T19:51:59;15.60;99.90
2565;DHT22;1292;48.020;7.822;2023-08-06T19:54:27;15.60;99.90
2565;DHT22;1292;48.020;7.822;2023-08-06T19:56:56;15.60;99.90
2565;DHT22;1292;48.020;7.822;2023-08-06T19:59:24;15.60;99.90
2565;DHT22;1292;48.020;7.822;2023-08-06T20:01:51;15.50;99.90
2565;DHT22;1292;48.020;7.822;2023-08-06T20:04:18;15.50;99.90
2565;DHT22;1292;48.020;7.822;2023-08-06T20:06:45;15.50;99.90
2565;DHT22;1292;48.020;7.822;2023-08-06T20:09:12;15.40;99.90
2565;DHT22;1292;48.020;7.822;2023-08-06T20:11:40;15.50;99.90
2565;DHT22;1292;48.020;7.822;2023-08-06T20:14:07;15.60;99.90
2565;DHT22;1292;48.020;7.822;2023-08-06T20:16:35;15.60;99.90
2565;DHT22;1292;48.020;7.822;2023-08-06T20:19:02;15.60;99.90
2565;DHT22;1292;48.020;7.822;2023-08-06T20:21:29;15.60;99.90
2565;DHT22;1292;48.020;7.822;2023-08-06T20:23:56;15.70;99.90
2565;DHT22;1292;48.020;7.822;2023-08-06T20:26:22;15.70;99.90
2565;DHT22;1292;48.020;7.822;2023-08-06T20:28:49;15.80;99.90
2565;DHT22;1292;48.020;7.822;2023-08-06T20:31:16;15.80;99.90
2565;DHT22;1292;48.020;7.822;2023-08-06T20:33:44;15.80;99.90
2565;DHT22;1292;48.020;7.822;2023-08-06T20:36:11;15.60;99.90
2565;DHT22;1292;48.020;7.822;2023-08-06T20:38:38;15.40;99.90
2565;DHT22;1292;48.020;7.822;2023-08-06T20:41:05;15.20;99.90
2565;DHT22;1292;48.020;7.822;2023-08-06T20:43:32;15.20;99.90
2565;DHT22;1292;48.020;7.822;2023-08-06T20:45:59;15.10;99.90
2565;DHT22;1292;48.020;7.822;2023-08-06T20:48:29;15.00;99.90
2565;DHT22;1292;48.020;7.822;2023-08-06T20:50:57;15.00;99.90
2565;DHT22;1292;48.020;7.822;2023-08-06T20:53:24;15.00;99.90
2565;DHT22;1292;48.020;7.822;2023-08-06T20:56:01;15.00;99.90
2565;DHT22;1292;48.020;7.822;2023-08-06T20:58:29;15.00;99.90
2565;DHT22;1292;48.020;7.822;2023-08-06T21:00:56;15.10;99.90
2565;DHT22;1292;48.020;7.822;2023-08-06T21:03:24;15.10;99.90
2565;DHT22;1292;48.020;7.822;2023-08-06T21:06:03;15.10;99.90
2565;DHT22;1292;48.020;7.822;2023-08-06T21:08:30;15.10;99.90
2565;DHT22;1292;48.020;7.822;2023-08-06T21:10:58;15.20;99.90
2565;DHT22;1292;48.020;7.822;2023-08-06T21:13:26;15.10;99.90
2565;DHT22;1292;48.020;7.822;2023-08-06T21:15:57;15.10;99.90
2565;DHT22;1292;48.020;7.822;2023-08-06T21:18:27;15.20;99.90
2565;DHT22;1292;48.020;7.822;2023-08-06T21:20:55;15.20;99.90
2565;DHT22;1292;48.020;7.822;2023-08-06T21:23:24;15.20;99.90
2565;DHT22;1292;48.020;7.822;2023-08-06T21:25:55;15.30;99.90
2565;DHT22;1292;48.020;7.822;2023-08-06T21:28:23;15.40;99.90
2565;DHT22;1292;48.020;7.822;2023-08-06T21:30:55;15.40;99.90
2565;DHT22;1292;48.020;7.822;2023-08-06T21:33:23;15.40;99.90
2565;DHT22;1292;48.020;7.822;2023-08-06T21:35:50;15.30;99.90
2565;DHT22;1292;48.020;7.822;2023-08-06T21:38:17;15.30;99.90
